DLH1616 EDDM-EPWA
Flight info
| Callsign | DLH1616 |
|---|---|
| Flight time | 1h 7m |
| Altitude | 30000 |
| Route | BIBAG3S/26L BIBAG Y133 BEPAS/N0452F350 DCT VLM DCT ENORU DCT VAGSA N871 OKENO Q277 AGAVA |
| Aircraft | A319/M-SDE3FGHIRWY/LB1 |
Departure
| Time | 2026-05-07 20:32 |
|---|---|
| Airport | Munich Airport (EDDM) |
Arrival
| Time | 2026-05-07 21:40 |
|---|---|
| Airport | Warsaw Chopin Airport (EPWA) |
| Time | Latitude | Longitude | Altitude | Speed | Heading |
|---|---|---|---|---|---|
| 2026-05-07 19:40 | 48.35665 | 11.79940 | 1486 ft | 0 kts | 263° |
| 2026-05-07 20:17 | 48.35667 | 11.79962 | 1471 ft | 4 kts | 263° |
| 2026-05-07 20:18 | 48.35670 | 11.80003 | 1473 ft | 4 kts | 264° |
| 2026-05-07 20:18 | 48.35673 | 11.80036 | 1473 ft | 4 kts | 253° |
| 2026-05-07 20:18 | 48.35685 | 11.80069 | 1477 ft | 4 kts | 218° |
| 2026-05-07 20:18 | 48.35697 | 11.80081 | 1471 ft | 0 kts | 200° |
| 2026-05-07 20:21 | 48.35696 | 11.80080 | 1471 ft | 0 kts | 200° |
| 2026-05-07 20:21 | 48.35685 | 11.80084 | 1480 ft | 3 kts | 167° |
| 2026-05-07 20:22 | 48.35664 | 11.80095 | 1475 ft | 4 kts | 164° |
| 2026-05-07 20:22 | 48.35627 | 11.80103 | 1479 ft | 6 kts | 173° |
| 2026-05-07 20:22 | 48.35580 | 11.80110 | 1480 ft | 7 kts | 174° |
| 2026-05-07 20:22 | 48.35530 | 11.80119 | 1485 ft | 8 kts | 174° |
| 2026-05-07 20:23 | 48.35476 | 11.80128 | 1485 ft | 8 kts | 174° |
| 2026-05-07 20:23 | 48.35418 | 11.80137 | 1484 ft | 9 kts | 174° |
| 2026-05-07 20:23 | 48.35359 | 11.80158 | 1483 ft | 9 kts | 176° |
| 2026-05-07 20:23 | 48.35296 | 11.80170 | 1485 ft | 9 kts | 173° |
| 2026-05-07 20:24 | 48.35228 | 11.80181 | 1474 ft | 10 kts | 172° |
| 2026-05-07 20:24 | 48.35158 | 11.80189 | 1481 ft | 10 kts | 190° |
| 2026-05-07 20:24 | 48.35133 | 11.80102 | 1485 ft | 10 kts | 264° |
| 2026-05-07 20:24 | 48.35123 | 11.79996 | 1480 ft | 11 kts | 263° |
| 2026-05-07 20:25 | 48.35115 | 11.79882 | 1485 ft | 11 kts | 263° |
| 2026-05-07 20:25 | 48.35106 | 11.79766 | 1485 ft | 12 kts | 263° |
| 2026-05-07 20:25 | 48.35075 | 11.79660 | 1485 ft | 11 kts | 205° |
| 2026-05-07 20:25 | 48.34997 | 11.79668 | 1485 ft | 11 kts | 174° |
| 2026-05-07 20:26 | 48.34919 | 11.79682 | 1478 ft | 11 kts | 170° |
| 2026-05-07 20:26 | 48.34839 | 11.79699 | 1485 ft | 12 kts | 177° |
| 2026-05-07 20:26 | 48.34808 | 11.79790 | 1485 ft | 11 kts | 83° |
| 2026-05-07 20:26 | 48.34817 | 11.79910 | 1485 ft | 12 kts | 84° |
| 2026-05-07 20:27 | 48.34827 | 11.80035 | 1479 ft | 12 kts | 83° |
| 2026-05-07 20:27 | 48.34838 | 11.80166 | 1481 ft | 13 kts | 82° |
| 2026-05-07 20:27 | 48.34840 | 11.80300 | 1485 ft | 13 kts | 104° |
| 2026-05-07 20:27 | 48.34775 | 11.80390 | 1481 ft | 13 kts | 164° |
| 2026-05-07 20:28 | 48.34726 | 11.80398 | 1481 ft | 0 kts | 174° |
| 2026-05-07 20:30 | 48.34710 | 11.80401 | 1485 ft | 6 kts | 172° |
| 2026-05-07 20:31 | 48.34650 | 11.80412 | 1485 ft | 11 kts | 174° |
| 2026-05-07 20:31 | 48.34563 | 11.80423 | 1480 ft | 12 kts | 176° |
| 2026-05-07 20:31 | 48.34482 | 11.80410 | 1480 ft | 12 kts | 223° |
| 2026-05-07 20:31 | 48.34462 | 11.80216 | 1479 ft | 45 kts | 263° |
| 2026-05-07 20:32 | 48.34395 | 11.79342 | 1479 ft | 120 kts | 263° |
| 2026-05-07 20:32 | 48.34277 | 11.77808 | 1578 ft | 165 kts | 264° |
| 2026-05-07 20:32 | 48.34155 | 11.76104 | 2259 ft | 165 kts | 265° |
| 2026-05-07 20:32 | 48.34041 | 11.74368 | 2897 ft | 173 kts | 265° |
| 2026-05-07 20:33 | 48.33816 | 11.72491 | 3286 ft | 195 kts | 247° |
| 2026-05-07 20:33 | 48.32795 | 11.71018 | 3598 ft | 222 kts | 200° |
| 2026-05-07 20:33 | 48.31256 | 11.70685 | 4472 ft | 224 kts | 183° |
| 2026-05-07 20:33 | 48.29699 | 11.70653 | 5446 ft | 225 kts | 178° |
| 2026-05-07 20:34 | 48.28179 | 11.71307 | 6249 ft | 236 kts | 154° |
| 2026-05-07 20:34 | 48.26739 | 11.72761 | 6691 ft | 262 kts | 146° |
| 2026-05-07 20:34 | 48.25192 | 11.74389 | 7299 ft | 278 kts | 147° |
| 2026-05-07 20:34 | 48.23578 | 11.76050 | 8163 ft | 284 kts | 148° |
| 2026-05-07 20:35 | 48.21927 | 11.77728 | 9079 ft | 289 kts | 149° |
| 2026-05-07 20:35 | 48.20335 | 11.79627 | 9973 ft | 298 kts | 136° |
| 2026-05-07 20:35 | 48.19134 | 11.82208 | 10781 ft | 307 kts | 117° |
| 2026-05-07 20:35 | 48.18498 | 11.85288 | 11607 ft | 315 kts | 98° |
| 2026-05-07 20:36 | 48.18520 | 11.88586 | 12435 ft | 319 kts | 83° |
| 2026-05-07 20:36 | 48.18879 | 11.91921 | 12976 ft | 334 kts | 72° |
| 2026-05-07 20:36 | 48.19968 | 11.95101 | 13243 ft | 355 kts | 53° |
| 2026-05-07 20:36 | 48.21417 | 11.98238 | 13567 ft | 373 kts | 53° |
| 2026-05-07 20:37 | 48.22923 | 12.01459 | 14186 ft | 381 kts | 53° |
| 2026-05-07 20:37 | 48.24448 | 12.04731 | 14860 ft | 385 kts | 53° |
| 2026-05-07 20:37 | 48.25979 | 12.08043 | 15543 ft | 388 kts | 53° |
| 2026-05-07 20:37 | 48.27519 | 12.11400 | 16215 ft | 392 kts | 53° |
| 2026-05-07 20:38 | 48.29070 | 12.14792 | 16900 ft | 396 kts | 53° |
| 2026-05-07 20:38 | 48.30632 | 12.18217 | 17582 ft | 399 kts | 53° |
| 2026-05-07 20:38 | 48.32206 | 12.21675 | 18265 ft | 403 kts | 53° |
| 2026-05-07 20:38 | 48.33794 | 12.25162 | 18863 ft | 406 kts | 53° |
| 2026-05-07 20:39 | 48.35399 | 12.28678 | 19462 ft | 409 kts | 53° |
| 2026-05-07 20:39 | 48.37017 | 12.32225 | 20068 ft | 412 kts | 53° |
| 2026-05-07 20:39 | 48.38642 | 12.35800 | 20676 ft | 416 kts | 53° |
| 2026-05-07 20:39 | 48.40276 | 12.39403 | 21262 ft | 419 kts | 53° |
| 2026-05-07 20:40 | 48.41922 | 12.43039 | 21836 ft | 422 kts | 53° |
| 2026-05-07 20:40 | 48.43578 | 12.46700 | 22391 ft | 425 kts | 53° |
| 2026-05-07 20:40 | 48.45248 | 12.50392 | 22939 ft | 428 kts | 53° |
| 2026-05-07 20:40 | 48.46930 | 12.54116 | 23472 ft | 431 kts | 53° |
| 2026-05-07 20:41 | 48.48618 | 12.57861 | 23944 ft | 434 kts | 53° |
| 2026-05-07 20:41 | 48.50319 | 12.61636 | 24387 ft | 436 kts | 53° |
| 2026-05-07 20:41 | 48.52026 | 12.65435 | 24819 ft | 439 kts | 53° |
| 2026-05-07 20:41 | 48.53742 | 12.69257 | 25249 ft | 442 kts | 54° |
| 2026-05-07 20:42 | 48.55470 | 12.73108 | 25696 ft | 444 kts | 54° |
| 2026-05-07 20:42 | 48.57203 | 12.76978 | 26122 ft | 447 kts | 54° |
| 2026-05-07 20:42 | 48.58944 | 12.80879 | 26561 ft | 449 kts | 54° |
| 2026-05-07 20:42 | 48.60692 | 12.84804 | 26992 ft | 452 kts | 54° |
| 2026-05-07 20:43 | 48.62451 | 12.88750 | 27401 ft | 454 kts | 54° |
| 2026-05-07 20:43 | 48.64223 | 12.92725 | 27807 ft | 457 kts | 54° |
| 2026-05-07 20:43 | 48.65400 | 12.95370 | 28073 ft | 458 kts | 54° |
| 2026-05-07 20:43 | 48.67785 | 13.00742 | 28597 ft | 462 kts | 54° |
| 2026-05-07 20:44 | 48.68997 | 13.03478 | 28849 ft | 463 kts | 54° |
| 2026-05-07 20:44 | 48.70794 | 13.07541 | 29222 ft | 466 kts | 54° |
| 2026-05-07 20:44 | 48.72602 | 13.11626 | 29588 ft | 468 kts | 54° |
| 2026-05-07 20:44 | 48.74418 | 13.15734 | 29949 ft | 470 kts | 54° |
| 2026-05-07 20:45 | 48.76241 | 13.19870 | 30263 ft | 473 kts | 54° |
| 2026-05-07 20:45 | 48.78068 | 13.24028 | 30588 ft | 475 kts | 54° |
| 2026-05-07 20:45 | 48.79896 | 13.28199 | 30967 ft | 475 kts | 54° |
| 2026-05-07 20:45 | 48.81699 | 13.32315 | 31324 ft | 475 kts | 54° |
| 2026-05-07 20:46 | 48.83531 | 13.36495 | 31664 ft | 476 kts | 54° |
| 2026-05-07 20:46 | 48.85386 | 13.40739 | 32030 ft | 477 kts | 54° |
| 2026-05-07 20:46 | 48.87215 | 13.44943 | 32380 ft | 477 kts | 54° |
| 2026-05-07 20:46 | 48.89048 | 13.49156 | 32730 ft | 478 kts | 54° |
| 2026-05-07 20:47 | 48.90995 | 13.53155 | 33069 ft | 477 kts | 49° |
| 2026-05-07 20:47 | 48.93087 | 13.57077 | 33412 ft | 478 kts | 49° |
| 2026-05-07 20:47 | 48.95180 | 13.61006 | 33779 ft | 478 kts | 49° |
| 2026-05-07 20:47 | 48.97270 | 13.64940 | 34129 ft | 478 kts | 49° |
| 2026-05-07 20:48 | 48.99389 | 13.68937 | 34429 ft | 479 kts | 49° |
| 2026-05-07 20:48 | 49.01480 | 13.72883 | 34743 ft | 479 kts | 49° |
| 2026-05-07 20:48 | 49.03569 | 13.76827 | 35044 ft | 479 kts | 50° |
| 2026-05-07 20:48 | 49.05657 | 13.80782 | 35305 ft | 479 kts | 50° |
| 2026-05-07 20:49 | 49.07744 | 13.84753 | 35573 ft | 480 kts | 50° |
| 2026-05-07 20:49 | 49.09828 | 13.88727 | 35845 ft | 480 kts | 50° |
| 2026-05-07 20:49 | 49.11915 | 13.92706 | 36104 ft | 480 kts | 50° |
| 2026-05-07 20:49 | 49.14003 | 13.96692 | 36378 ft | 480 kts | 50° |
| 2026-05-07 20:50 | 49.16086 | 14.00672 | 36642 ft | 480 kts | 50° |
| 2026-05-07 20:50 | 49.18169 | 14.04663 | 36894 ft | 480 kts | 51° |
| 2026-05-07 20:50 | 49.20253 | 14.08666 | 37031 ft | 481 kts | 51° |
| 2026-05-07 20:51 | 49.24425 | 14.16669 | 37058 ft | 481 kts | 51° |
| 2026-05-07 20:51 | 49.28590 | 14.24676 | 37050 ft | 481 kts | 51° |
| 2026-05-07 20:52 | 49.32748 | 14.32695 | 37050 ft | 480 kts | 51° |
| 2026-05-07 20:52 | 49.36891 | 14.40738 | 37031 ft | 481 kts | 51° |
| 2026-05-07 20:53 | 49.41035 | 14.48805 | 37041 ft | 481 kts | 51° |
| 2026-05-07 20:53 | 49.45178 | 14.56883 | 37038 ft | 481 kts | 51° |
| 2026-05-07 20:54 | 49.49315 | 14.64979 | 37049 ft | 482 kts | 51° |
| 2026-05-07 20:54 | 49.53448 | 14.73085 | 37051 ft | 481 kts | 51° |
| 2026-05-07 20:55 | 49.57575 | 14.81195 | 37052 ft | 481 kts | 51° |
| 2026-05-07 20:55 | 49.61690 | 14.89321 | 37049 ft | 481 kts | 52° |
| 2026-05-07 20:56 | 49.65766 | 14.97390 | 37048 ft | 480 kts | 52° |
| 2026-05-07 20:56 | 49.69867 | 15.05527 | 37040 ft | 480 kts | 52° |
| 2026-05-07 20:57 | 49.73956 | 15.13693 | 37032 ft | 481 kts | 52° |
| 2026-05-07 20:57 | 49.78038 | 15.21895 | 37028 ft | 481 kts | 52° |
| 2026-05-07 20:58 | 49.82114 | 15.30111 | 37028 ft | 481 kts | 52° |
| 2026-05-07 20:58 | 49.86189 | 15.38355 | 37037 ft | 482 kts | 52° |
| 2026-05-07 20:59 | 49.90286 | 15.46665 | 37042 ft | 482 kts | 52° |
| 2026-05-07 20:59 | 49.94347 | 15.54937 | 37042 ft | 482 kts | 52° |
| 2026-05-07 21:00 | 49.98404 | 15.63215 | 37035 ft | 481 kts | 52° |
| 2026-05-07 21:00 | 50.02459 | 15.71499 | 37025 ft | 481 kts | 53° |
| 2026-05-07 21:01 | 50.06268 | 15.80047 | 37036 ft | 481 kts | 58° |
| 2026-05-07 21:01 | 50.09781 | 15.88903 | 37037 ft | 481 kts | 59° |
| 2026-05-07 21:02 | 50.13209 | 15.97843 | 37043 ft | 480 kts | 60° |
| 2026-05-07 21:02 | 50.16642 | 16.06780 | 37043 ft | 480 kts | 59° |
| 2026-05-07 21:03 | 50.20118 | 16.15678 | 37046 ft | 480 kts | 59° |
| 2026-05-07 21:03 | 50.23611 | 16.24574 | 37050 ft | 480 kts | 59° |
| 2026-05-07 21:04 | 50.27077 | 16.33485 | 37033 ft | 480 kts | 60° |
| 2026-05-07 21:04 | 50.30532 | 16.42429 | 37035 ft | 481 kts | 60° |
| 2026-05-07 21:05 | 50.33984 | 16.51392 | 37038 ft | 481 kts | 60° |
| 2026-05-07 21:05 | 50.37433 | 16.60366 | 37046 ft | 481 kts | 60° |
| 2026-05-07 21:06 | 50.40879 | 16.69359 | 37056 ft | 481 kts | 60° |
| 2026-05-07 21:06 | 50.44318 | 16.78363 | 37061 ft | 481 kts | 60° |
| 2026-05-07 21:07 | 50.47747 | 16.87370 | 37064 ft | 481 kts | 60° |
| 2026-05-07 21:07 | 50.51170 | 16.96396 | 37047 ft | 481 kts | 60° |
| 2026-05-07 21:08 | 50.54590 | 17.05445 | 37049 ft | 482 kts | 60° |
| 2026-05-07 21:08 | 50.58002 | 17.14522 | 37065 ft | 482 kts | 61° |
| 2026-05-07 21:09 | 50.61408 | 17.23608 | 37062 ft | 482 kts | 61° |
| 2026-05-07 21:09 | 50.64810 | 17.32711 | 37075 ft | 482 kts | 61° |
| 2026-05-07 21:10 | 50.68204 | 17.41822 | 37076 ft | 482 kts | 61° |
| 2026-05-07 21:10 | 50.71588 | 17.50956 | 37077 ft | 482 kts | 61° |
| 2026-05-07 21:11 | 50.74965 | 17.60104 | 37063 ft | 482 kts | 62° |
| 2026-05-07 21:11 | 50.80024 | 17.73864 | 37067 ft | 483 kts | 62° |
| 2026-05-07 21:12 | 50.83393 | 17.83053 | 37071 ft | 483 kts | 62° |
| 2026-05-07 21:12 | 50.86763 | 17.92252 | 37073 ft | 483 kts | 62° |
| 2026-05-07 21:13 | 50.90101 | 18.01411 | 37081 ft | 483 kts | 62° |
| 2026-05-07 21:13 | 50.93468 | 18.10704 | 37079 ft | 483 kts | 63° |
| 2026-05-07 21:14 | 50.96800 | 18.19944 | 37075 ft | 483 kts | 63° |
| 2026-05-07 21:14 | 51.00127 | 18.29193 | 37046 ft | 483 kts | 63° |
| 2026-05-07 21:15 | 51.03445 | 18.38467 | 37052 ft | 483 kts | 63° |
| 2026-05-07 21:15 | 51.06766 | 18.47755 | 37062 ft | 483 kts | 63° |
| 2026-05-07 21:16 | 51.10082 | 18.57051 | 37065 ft | 483 kts | 63° |
| 2026-05-07 21:16 | 51.13388 | 18.66352 | 37065 ft | 483 kts | 63° |
| 2026-05-07 21:17 | 51.16682 | 18.75670 | 37062 ft | 483 kts | 63° |
| 2026-05-07 21:17 | 51.19961 | 18.85008 | 36751 ft | 482 kts | 63° |
| 2026-05-07 21:18 | 51.21598 | 18.89680 | 36499 ft | 482 kts | 64° |
| 2026-05-07 21:18 | 51.23237 | 18.94352 | 36222 ft | 483 kts | 64° |
| 2026-05-07 21:18 | 51.24863 | 18.98990 | 35328 ft | 489 kts | 65° |
| 2026-05-07 21:18 | 51.26549 | 19.03823 | 34358 ft | 495 kts | 66° |
| 2026-05-07 21:19 | 51.28232 | 19.08665 | 33286 ft | 501 kts | 66° |
| 2026-05-07 21:19 | 51.29928 | 19.13545 | 32256 ft | 504 kts | 66° |
| 2026-05-07 21:19 | 51.31624 | 19.18414 | 31278 ft | 497 kts | 67° |
| 2026-05-07 21:19 | 51.33302 | 19.23241 | 29838 ft | 497 kts | 67° |
| 2026-05-07 21:20 | 51.34968 | 19.28050 | 28524 ft | 491 kts | 67° |
| 2026-05-07 21:20 | 51.36608 | 19.32789 | 27629 ft | 481 kts | 66° |
| 2026-05-07 21:20 | 51.38190 | 19.37367 | 26965 ft | 474 kts | 66° |
| 2026-05-07 21:20 | 51.39773 | 19.41972 | 26205 ft | 471 kts | 66° |
| 2026-05-07 21:21 | 51.41362 | 19.46614 | 25445 ft | 468 kts | 66° |
| 2026-05-07 21:21 | 51.42920 | 19.51173 | 24711 ft | 465 kts | 65° |
| 2026-05-07 21:21 | 51.44466 | 19.55697 | 23964 ft | 461 kts | 66° |
| 2026-05-07 21:21 | 51.45998 | 19.60187 | 23204 ft | 457 kts | 66° |
| 2026-05-07 21:22 | 51.47516 | 19.64631 | 22522 ft | 451 kts | 65° |
| 2026-05-07 21:22 | 51.48510 | 19.67543 | 22083 ft | 447 kts | 65° |
| 2026-05-07 21:22 | 51.49993 | 19.71896 | 21445 ft | 442 kts | 65° |
| 2026-05-07 21:22 | 51.51454 | 19.76196 | 20853 ft | 437 kts | 65° |
| 2026-05-07 21:23 | 51.52898 | 19.80463 | 20259 ft | 433 kts | 64° |
| 2026-05-07 21:23 | 51.54327 | 19.84699 | 19704 ft | 429 kts | 64° |
| 2026-05-07 21:23 | 51.55742 | 19.88893 | 19249 ft | 424 kts | 64° |
| 2026-05-07 21:23 | 51.56991 | 19.93089 | 19130 ft | 408 kts | 72° |
| 2026-05-07 21:24 | 51.57724 | 19.97390 | 18896 ft | 393 kts | 83° |
| 2026-05-07 21:24 | 51.57956 | 20.01708 | 18662 ft | 384 kts | 94° |
| 2026-05-07 21:24 | 51.57834 | 20.05978 | 18379 ft | 382 kts | 97° |
| 2026-05-07 21:24 | 51.57693 | 20.10230 | 18062 ft | 381 kts | 96° |
| 2026-05-07 21:25 | 51.57555 | 20.14474 | 17770 ft | 379 kts | 96° |
| 2026-05-07 21:25 | 51.57419 | 20.18686 | 17482 ft | 376 kts | 96° |
| 2026-05-07 21:25 | 51.57286 | 20.22864 | 17196 ft | 373 kts | 96° |
| 2026-05-07 21:25 | 51.57155 | 20.27017 | 16873 ft | 372 kts | 96° |
| 2026-05-07 21:26 | 51.57019 | 20.31164 | 16344 ft | 370 kts | 96° |
| 2026-05-07 21:26 | 51.56879 | 20.35282 | 15866 ft | 368 kts | 96° |
| 2026-05-07 21:26 | 51.56736 | 20.39375 | 15391 ft | 365 kts | 96° |
| 2026-05-07 21:26 | 51.56782 | 20.43449 | 14920 ft | 366 kts | 85° |
| 2026-05-07 21:27 | 51.57336 | 20.47428 | 14438 ft | 365 kts | 72° |
| 2026-05-07 21:27 | 51.58292 | 20.51204 | 13968 ft | 364 kts | 67° |
| 2026-05-07 21:27 | 51.59273 | 20.54925 | 13515 ft | 360 kts | 67° |
| 2026-05-07 21:27 | 51.60239 | 20.58625 | 13050 ft | 356 kts | 68° |
| 2026-05-07 21:28 | 51.61189 | 20.62291 | 12535 ft | 354 kts | 68° |
| 2026-05-07 21:28 | 51.62131 | 20.65937 | 12077 ft | 351 kts | 68° |
| 2026-05-07 21:28 | 51.63061 | 20.69538 | 11630 ft | 347 kts | 68° |
| 2026-05-07 21:28 | 51.63981 | 20.73109 | 11167 ft | 343 kts | 67° |
| 2026-05-07 21:29 | 51.64887 | 20.76642 | 10731 ft | 340 kts | 67° |
| 2026-05-07 21:29 | 51.65780 | 20.80142 | 10400 ft | 333 kts | 67° |
| 2026-05-07 21:29 | 51.66646 | 20.83525 | 10278 ft | 320 kts | 67° |
| 2026-05-07 21:29 | 51.67481 | 20.86773 | 10150 ft | 309 kts | 67° |
| 2026-05-07 21:30 | 51.68427 | 20.89825 | 9910 ft | 301 kts | 55° |
| 2026-05-07 21:30 | 51.69764 | 20.92384 | 9614 ft | 299 kts | 41° |
| 2026-05-07 21:30 | 51.71389 | 20.94455 | 9171 ft | 298 kts | 35° |
| 2026-05-07 21:30 | 51.73038 | 20.96460 | 8785 ft | 295 kts | 36° |
| 2026-05-07 21:31 | 51.74674 | 20.98464 | 8349 ft | 294 kts | 36° |
| 2026-05-07 21:31 | 51.76295 | 21.00463 | 7896 ft | 294 kts | 36° |
| 2026-05-07 21:31 | 51.77903 | 21.02454 | 7528 ft | 290 kts | 36° |
| 2026-05-07 21:31 | 51.79505 | 21.04437 | 7134 ft | 288 kts | 36° |
| 2026-05-07 21:32 | 51.81083 | 21.06386 | 6625 ft | 284 kts | 36° |
| 2026-05-07 21:32 | 51.82642 | 21.08310 | 6110 ft | 280 kts | 36° |
| 2026-05-07 21:32 | 51.84177 | 21.10209 | 5676 ft | 276 kts | 36° |
| 2026-05-07 21:32 | 51.85698 | 21.12095 | 5275 ft | 276 kts | 36° |
| 2026-05-07 21:33 | 51.87213 | 21.13975 | 4858 ft | 273 kts | 36° |
| 2026-05-07 21:33 | 51.88752 | 21.15751 | 4430 ft | 270 kts | 27° |
| 2026-05-07 21:33 | 51.90484 | 21.16785 | 4127 ft | 260 kts | 9° |
| 2026-05-07 21:33 | 51.92223 | 21.16929 | 4058 ft | 243 kts | 353° |
| 2026-05-07 21:34 | 51.93817 | 21.16360 | 3960 ft | 228 kts | 338° |
| 2026-05-07 21:34 | 51.95204 | 21.15276 | 3860 ft | 216 kts | 330° |
| 2026-05-07 21:34 | 51.96501 | 21.14158 | 3764 ft | 207 kts | 330° |
| 2026-05-07 21:34 | 51.97742 | 21.13086 | 3668 ft | 197 kts | 330° |
| 2026-05-07 21:35 | 51.98935 | 21.12054 | 3586 ft | 192 kts | 330° |
| 2026-05-07 21:35 | 52.00074 | 21.11068 | 3533 ft | 179 kts | 331° |
| 2026-05-07 21:35 | 52.01143 | 21.10143 | 3446 ft | 168 kts | 330° |
| 2026-05-07 21:35 | 52.02148 | 21.09271 | 3325 ft | 161 kts | 331° |
| 2026-05-07 21:36 | 52.03121 | 21.08427 | 3143 ft | 157 kts | 331° |
| 2026-05-07 21:36 | 52.04076 | 21.07597 | 2941 ft | 155 kts | 332° |
| 2026-05-07 21:36 | 52.05018 | 21.06780 | 2746 ft | 152 kts | 332° |
| 2026-05-07 21:36 | 52.05950 | 21.05970 | 2537 ft | 151 kts | 333° |
| 2026-05-07 21:37 | 52.06872 | 21.05169 | 2330 ft | 148 kts | 333° |
| 2026-05-07 21:37 | 52.07743 | 21.04411 | 2136 ft | 136 kts | 333° |
| 2026-05-07 21:37 | 52.08561 | 21.03699 | 1943 ft | 131 kts | 334° |
| 2026-05-07 21:37 | 52.09355 | 21.03004 | 1788 ft | 129 kts | 334° |
| 2026-05-07 21:38 | 52.10137 | 21.02309 | 1632 ft | 128 kts | 333° |
| 2026-05-07 21:38 | 52.10923 | 21.01622 | 1439 ft | 128 kts | 334° |
| 2026-05-07 21:38 | 52.11707 | 21.00945 | 1261 ft | 127 kts | 334° |
| 2026-05-07 21:38 | 52.12487 | 21.00276 | 1049 ft | 126 kts | 334° |
| 2026-05-07 21:39 | 52.13259 | 20.99600 | 849 ft | 125 kts | 333° |
| 2026-05-07 21:39 | 52.14023 | 20.98923 | 677 ft | 125 kts | 333° |
| 2026-05-07 21:39 | 52.14789 | 20.98270 | 535 ft | 124 kts | 334° |
| 2026-05-07 21:39 | 52.15550 | 20.97613 | 401 ft | 124 kts | 333° |
| 2026-05-07 21:40 | 52.16271 | 20.96980 | 337 ft | 102 kts | 331° |
| 2026-05-07 21:40 | 52.16729 | 20.96579 | 340 ft | 37 kts | 332° |
| 2026-05-07 21:40 | 52.16911 | 20.96511 | 335 ft | 19 kts | 357° |
| 2026-05-07 21:40 | 52.17019 | 20.96515 | 334 ft | 16 kts | 1° |
| 2026-05-07 21:41 | 52.17087 | 20.96560 | 337 ft | 10 kts | 62° |
| 2026-05-07 21:41 | 52.17118 | 20.96661 | 337 ft | 10 kts | 58° |
| 2026-05-07 21:41 | 52.17153 | 20.96760 | 337 ft | 10 kts | 62° |
| 2026-05-07 21:41 | 52.17149 | 20.96851 | 335 ft | 9 kts | 143° |
| 2026-05-07 21:42 | 52.17090 | 20.96900 | 337 ft | 10 kts | 152° |
| 2026-05-07 21:42 | 52.17033 | 20.96949 | 338 ft | 7 kts | 152° |
| 2026-05-07 21:42 | 52.17027 | 20.97010 | 339 ft | 6 kts | 71° |
| 2026-05-07 21:42 | 52.17041 | 20.97072 | 335 ft | 4 kts | 70° |
| 2026-05-07 21:43 | 52.17048 | 20.97106 | 339 ft | 3 kts | 68° |
| 2026-05-07 21:43 | 52.17049 | 20.97109 | 339 ft | 0 kts | 68° |